sensor_id;sensor_type;location;lat;lon;timestamp;pressure;altitude;pressure_sealevel;temperature;humidity
45864;BME280;31579;52.354;16.974;2023-06-14T00:00:16;138.0;;;-146.1;100.0
45864;BME280;31579;52.354;16.974;2023-06-14T00:01:21;153.0;;;-146.1;100.0
45864;BME280;31579;52.354;16.974;2023-06-14T00:02:26;164.8;;;-146.1;100.0
45864;BME280;31579;52.354;16.974;2023-06-14T00:03:30;172.9;;;-146.1;100.0
45864;BME280;31579;52.354;16.974;2023-06-14T00:04:34;185.0;;;-146.1;100.0
45864;BME280;31579;52.354;16.974;2023-06-14T00:05:38;190.7;;;-146.1;100.0
45864;BME280;31579;52.354;16.974;2023-06-14T00:06:43;199.9;;;-146.1;100.0
45864;BME280;31579;52.354;16.974;2023-06-14T00:07:47;216.0;;;-146.1;100.0
45864;BME280;31579;52.354;16.974;2023-06-14T00:08:51;223.7;;;-146.1;100.0
45864;BME280;31579;52.354;16.974;2023-06-14T00:09:55;223.9;;;-146.1;100.0
45864;BME280;31579;52.354;16.974;2023-06-14T00:11:00;228.3;;;-146.1;100.0
45864;BME280;31579;52.354;16.974;2023-06-14T00:12:02;339.7;;;-146.1;100.0
45864;BME280;31579;52.354;16.974;2023-06-14T00:13:19;273.5;;;-146.1;100.0
45864;BME280;31579;52.354;16.974;2023-06-14T00:14:23;252.8;;;-146.1;100.0
45864;BME280;31579;52.354;16.974;2023-06-14T00:15:28;260.2;;;-146.1;100.0
45864;BME280;31579;52.354;16.974;2023-06-14T00:16:31;260.9;;;-146.1;100.0
45864;BME280;31579;52.354;16.974;2023-06-14T00:17:36;275.8;;;-146.1;100.0
45864;BME280;31579;52.354;16.974;2023-06-14T00:18:39;282.0;;;-146.1;100.0
45864;BME280;31579;52.354;16.974;2023-06-14T00:19:43;285.8;;;-146.1;100.0
45864;BME280;31579;52.354;16.974;2023-06-14T00:20:47;286.0;;;-146.1;100.0
45864;BME280;31579;52.354;16.974;2023-06-14T00:21:51;300.9;;;-146.1;100.0
45864;BME280;31579;52.354;16.974;2023-06-14T00:22:55;303.2;;;-146.1;100.0
45864;BME280;31579;52.354;16.974;2023-06-14T00:23:59;312.0;;;-146.1;100.0
45864;BME280;31579;52.354;16.974;2023-06-14T00:25:04;314.6;;;-146.1;100.0
45864;BME280;31579;52.354;16.974;2023-06-14T00:26:07;308.3;;;-146.1;100.0
45864;BME280;31579;52.354;16.974;2023-06-14T00:27:11;315.3;;;-146.1;100.0
45864;BME280;31579;52.354;16.974;2023-06-14T00:28:16;314.9;;;-146.1;100.0
45864;BME280;31579;52.354;16.974;2023-06-14T00:29:20;325.4;;;-146.1;100.0
45864;BME280;31579;52.354;16.974;2023-06-14T00:30:24;324.1;;;-146.1;100.0
45864;BME280;31579;52.354;16.974;2023-06-14T00:31:28;333.9;;;-146.1;100.0
45864;BME280;31579;52.354;16.974;2023-06-14T00:32:32;338.9;;;-146.1;100.0
45864;BME280;31579;52.354;16.974;2023-06-14T00:33:36;346.8;;;-146.1;100.0
45864;BME280;31579;52.354;16.974;2023-06-14T00:34:40;354.7;;;-146.1;100.0
45864;BME280;31579;52.354;16.974;2023-06-14T00:35:57;357.3;;;-146.1;100.0
45864;BME280;31579;52.354;16.974;2023-06-14T00:37:01;355.4;;;-146.1;100.0
45864;BME280;31579;52.354;16.974;2023-06-14T00:38:06;365.0;;;-146.1;100.0
45864;BME280;31579;52.354;16.974;2023-06-14T00:39:10;375.6;;;-146.1;100.0
45864;BME280;31579;52.354;16.974;2023-06-14T00:40:14;374.2;;;-146.1;100.0
45864;BME280;31579;52.354;16.974;2023-06-14T00:41:18;372.7;;;-146.1;100.0
45864;BME280;31579;52.354;16.974;2023-06-14T00:43:26;377.8;;;-146.1;100.0
45864;BME280;31579;52.354;16.974;2023-06-14T00:44:31;380.6;;;-146.1;100.0
45864;BME280;31579;52.354;16.974;2023-06-14T00:45:35;382.0;;;-146.1;100.0
45864;BME280;31579;52.354;16.974;2023-06-14T00:46:39;383.4;;;-146.1;100.0
45864;BME280;31579;52.354;16.974;2023-06-14T00:47:44;386.1;;;-146.1;100.0
45864;BME280;31579;52.354;16.974;2023-06-14T00:48:48;388.9;;;-146.1;100.0
45864;BME280;31579;52.354;16.974;2023-06-14T00:49:52;393.3;;;-146.1;100.0
45864;BME280;31579;52.354;16.974;2023-06-14T00:50:56;400.5;;;-146.1;100.0
45864;BME280;31579;52.354;16.974;2023-06-14T00:52:00;405.7;;;-146.1;100.0
45864;BME280;31579;52.354;16.974;2023-06-14T00:53:04;410.7;;;-146.1;100.0
45864;BME280;31579;52.354;16.974;2023-06-14T00:54:08;411.8;;;-146.1;100.0
45864;BME280;31579;52.354;16.974;2023-06-14T00:55:12;411.4;;;-146.1;100.0
45864;BME280;31579;52.354;16.974;2023-06-14T00:56:16;415.8;;;-146.1;100.0
45864;BME280;31579;52.354;16.974;2023-06-14T00:57:20;418.3;;;-146.1;100.0
45864;BME280;31579;52.354;16.974;2023-06-14T00:58:24;417.7;;;-146.1;100.0
45864;BME280;31579;52.354;16.974;2023-06-14T00:59:28;420.7;;;-146.1;100.0
45864;BME280;31579;52.354;16.974;2023-06-14T01:00:32;420.6;;;-146.1;100.0
45864;BME280;31579;52.354;16.974;2023-06-14T01:02:41;425.9;;;-146.1;100.0
45864;BME280;31579;52.354;16.974;2023-06-14T01:03:45;429.7;;;-146.1;100.0
45864;BME280;31579;52.354;16.974;2023-06-14T01:04:49;432.8;;;-146.1;100.0
45864;BME280;31579;52.354;16.974;2023-06-14T01:05:57;433.1;;;-146.1;100.0
45864;BME280;31579;52.354;16.974;2023-06-14T01:11:16;441.1;;;-146.1;100.0
45864;BME280;31579;52.354;16.974;2023-06-14T01:14:26;444.3;;;-146.1;100.0
45864;BME280;31579;52.354;16.974;2023-06-14T01:15:30;445.3;;;-146.1;100.0
45864;BME280;31579;52.354;16.974;2023-06-14T01:16:34;447.0;;;-146.1;100.0
45864;BME280;31579;52.354;16.974;2023-06-14T01:17:38;448.0;;;-146.1;100.0
45864;BME280;31579;52.354;16.974;2023-06-14T01:18:42;450.0;;;-146.1;100.0
45864;BME280;31579;52.354;16.974;2023-06-14T01:19:46;452.3;;;-146.1;100.0
45864;BME280;31579;52.354;16.974;2023-06-14T01:20:50;453.9;;;-146.1;100.0
45864;BME280;31579;52.354;16.974;2023-06-14T01:21:55;454.7;;;-146.1;100.0
45864;BME280;31579;52.354;16.974;2023-06-14T01:22:58;454.1;;;-146.1;100.0
45864;BME280;31579;52.354;16.974;2023-06-14T01:24:01;469.7;;;-146.1;100.0
45864;BME280;31579;52.354;16.974;2023-06-14T01:25:04;467.2;;;-146.1;100.0
45864;BME280;31579;52.354;16.974;2023-06-14T01:26:08;457.2;;;-146.1;100.0
45864;BME280;31579;52.354;16.974;2023-06-14T01:27:12;456.9;;;-146.1;100.0
45864;BME280;31579;52.354;16.974;2023-06-14T01:28:16;456.5;;;-146.1;100.0
45864;BME280;31579;52.354;16.974;2023-06-14T01:29:34;438.4;;;-146.1;100.0
45864;BME280;31579;52.354;16.974;2023-06-14T01:30:40;451.1;;;-146.1;100.0
45864;BME280;31579;52.354;16.974;2023-06-14T01:31:42;456.1;;;-146.1;100.0
45864;BME280;31579;52.354;16.974;2023-06-14T01:32:46;458.0;;;-146.1;100.0
45864;BME280;31579;52.354;16.974;2023-06-14T01:33:50;459.7;;;-146.1;100.0
45864;BME280;31579;52.354;16.974;2023-06-14T01:34:54;462.2;;;-146.1;100.0
45864;BME280;31579;52.354;16.974;2023-06-14T01:35:58;462.4;;;-146.1;100.0
45864;BME280;31579;52.354;16.974;2023-06-14T01:37:03;462.1;;;-146.1;100.0
45864;BME280;31579;52.354;16.974;2023-06-14T01:38:07;460.2;;;-146.1;100.0
45864;BME280;31579;52.354;16.974;2023-06-14T01:39:12;460.2;;;-146.1;100.0
45864;BME280;31579;52.354;16.974;2023-06-14T01:40:15;461.9;;;-146.1;100.0
45864;BME280;31579;52.354;16.974;2023-06-14T01:41:19;461.6;;;-146.1;100.0
45864;BME280;31579;52.354;16.974;2023-06-14T01:42:23;462.8;;;-146.1;100.0
45864;BME280;31579;52.354;16.974;2023-06-14T01:43:27;463.4;;;-146.1;100.0
45864;BME280;31579;52.354;16.974;2023-06-14T01:44:30;477.4;;;-146.1;100.0
45864;BME280;31579;52.354;16.974;2023-06-14T01:45:42;404.9;;;-146.1;100.0
45864;BME280;31579;52.354;16.974;2023-06-14T01:46:46;456.9;;;-146.1;100.0
45864;BME280;31579;52.354;16.974;2023-06-14T01:47:50;462.8;;;-146.1;100.0
45864;BME280;31579;52.354;16.974;2023-06-14T01:48:54;466.3;;;-146.1;100.0
45864;BME280;31579;52.354;16.974;2023-06-14T01:49:58;465.7;;;-146.1;100.0
45864;BME280;31579;52.354;16.974;2023-06-14T01:51:00;478.3;;;-146.1;100.0
45864;BME280;31579;52.354;16.974;2023-06-14T01:52:05;469.7;;;-146.1;100.0
45864;BME280;31579;52.354;16.974;2023-06-14T01:53:09;466.9;;;-146.1;100.0
45864;BME280;31579;52.354;16.974;2023-06-14T01:54:13;467.0;;;-146.1;100.0
45864;BME280;31579;52.354;16.974;2023-06-14T01:55:17;467.0;;;-146.1;100.0
45864;BME280;31579;52.354;16.974;2023-06-14T01:56:21;468.3;;;-146.1;100.0
45864;BME280;31579;52.354;16.974;2023-06-14T01:57:26;467.6;;;-146.1;100.0
45864;BME280;31579;52.354;16.974;2023-06-14T01:58:30;467.9;;;-146.1;100.0
45864;BME280;31579;52.354;16.974;2023-06-14T01:59:34;469.1;;;-146.1;100.0
45864;BME280;31579;52.354;16.974;2023-06-14T02:00:37;481.2;;;-146.1;100.0
45864;BME280;31579;52.354;16.974;2023-06-14T02:01:41;473.2;;;-146.1;100.0
45864;BME280;31579;52.354;16.974;2023-06-14T02:02:45;471.9;;;-146.1;100.0
45864;BME280;31579;52.354;16.974;2023-06-14T02:03:49;471.1;;;-146.1;100.0
45864;BME280;31579;52.354;16.974;2023-06-14T02:04:53;471.3;;;-146.1;100.0
45864;BME280;31579;52.354;16.974;2023-06-14T02:05:57;472.5;;;-146.1;100.0
45864;BME280;31579;52.354;16.974;2023-06-14T02:07:01;473.4;;;-146.1;100.0
45864;BME280;31579;52.354;16.974;2023-06-14T02:08:06;474.3;;;-146.1;100.0
45864;BME280;31579;52.354;16.974;2023-06-14T02:09:09;475.3;;;-146.1;100.0
45864;BME280;31579;52.354;16.974;2023-06-14T02:10:13;476.0;;;-146.1;100.0
45864;BME280;31579;52.354;16.974;2023-06-14T02:11:17;475.5;;;-146.1;100.0
45864;BME280;31579;52.354;16.974;2023-06-14T02:12:21;475.2;;;-146.1;100.0
45864;BME280;31579;52.354;16.974;2023-06-14T02:13:25;475.3;;;-146.1;100.0
45864;BME280;31579;52.354;16.974;2023-06-14T02:14:29;475.5;;;-146.1;100.0
45864;BME280;31579;52.354;16.974;2023-06-14T02:15:33;475.4;;;-146.1;100.0
45864;BME280;31579;52.354;16.974;2023-06-14T02:16:36;481.8;;;-146.1;100.0
45864;BME280;31579;52.354;16.974;2023-06-14T02:17:38;484.9;;;-146.1;100.0
45864;BME280;31579;52.354;16.974;2023-06-14T02:18:42;477.6;;;-146.1;100.0
45864;BME280;31579;52.354;16.974;2023-06-14T02:19:46;474.9;;;-146.1;100.0
45864;BME280;31579;52.354;16.974;2023-06-14T02:20:50;474.5;;;-146.1;100.0
45864;BME280;31579;52.354;16.974;2023-06-14T02:21:54;474.8;;;-146.1;100.0
45864;BME280;31579;52.354;16.974;2023-06-14T02:22:59;476.1;;;-146.1;100.0
45864;BME280;31579;52.354;16.974;2023-06-14T02:24:03;476.6;;;-146.1;100.0
45864;BME280;31579;52.354;16.974;2023-06-14T02:25:13;464.9;;;-146.1;100.0
45864;BME280;31579;52.354;16.974;2023-06-14T02:26:16;474.6;;;-146.1;100.0
45864;BME280;31579;52.354;16.974;2023-06-14T02:27:20;476.8;;;-146.1;100.0
45864;BME280;31579;52.354;16.974;2023-06-14T02:28:24;476.8;;;-146.1;100.0
45864;BME280;31579;52.354;16.974;2023-06-14T02:29:29;477.0;;;-146.1;100.0
45864;BME280;31579;52.354;16.974;2023-06-14T02:30:32;477.5;;;-146.1;100.0
45864;BME280;31579;52.354;16.974;2023-06-14T02:31:37;478.2;;;-146.1;100.0
45864;BME280;31579;52.354;16.974;2023-06-14T02:32:40;478.5;;;-146.1;100.0
45864;BME280;31579;52.354;16.974;2023-06-14T02:33:44;479.5;;;-146.1;100.0
45864;BME280;31579;52.354;16.974;2023-06-14T02:34:48;480.3;;;-146.1;100.0
45864;BME280;31579;52.354;16.974;2023-06-14T02:35:53;480.3;;;-146.1;100.0
45864;BME280;31579;52.354;16.974;2023-06-14T02:36:56;480.8;;;-146.1;100.0
45864;BME280;31579;52.354;16.974;2023-06-14T02:38:01;480.7;;;-146.1;100.0
45864;BME280;31579;52.354;16.974;2023-06-14T02:39:05;481.0;;;-146.1;100.0
45864;BME280;31579;52.354;16.974;2023-06-14T02:40:10;485.7;;;-146.1;100.0
45864;BME280;31579;52.354;16.974;2023-06-14T02:41:14;482.0;;;-146.1;100.0
45864;BME280;31579;52.354;16.974;2023-06-14T02:42:17;481.1;;;-146.1;100.0
45864;BME280;31579;52.354;16.974;2023-06-14T02:43:22;480.6;;;-146.1;100.0
45864;BME280;31579;52.354;16.974;2023-06-14T02:44:26;480.8;;;-146.1;100.0
45864;BME280;31579;52.354;16.974;2023-06-14T02:45:30;480.6;;;-146.1;100.0
45864;BME280;31579;52.354;16.974;2023-06-14T02:46:35;481.3;;;-146.1;100.0
45864;BME280;31579;52.354;16.974;2023-06-14T02:47:39;481.2;;;-146.1;100.0
45864;BME280;31579;52.354;16.974;2023-06-14T02:48:43;481.4;;;-146.1;100.0
45864;BME280;31579;52.354;16.974;2023-06-14T02:49:47;480.9;;;-146.1;100.0
45864;BME280;31579;52.354;16.974;2023-06-14T02:50:51;480.3;;;-146.1;100.0
45864;BME280;31579;52.354;16.974;2023-06-14T02:51:55;480.2;;;-146.1;100.0
45864;BME280;31579;52.354;16.974;2023-06-14T02:52:59;479.9;;;-146.1;100.0
45864;BME280;31579;52.354;16.974;2023-06-14T02:54:04;480.5;;;-146.1;100.0
45864;BME280;31579;52.354;16.974;2023-06-14T02:55:08;479.3;;;-146.1;100.0
45864;BME280;31579;52.354;16.974;2023-06-14T02:56:12;479.6;;;-146.1;100.0
45864;BME280;31579;52.354;16.974;2023-06-14T02:57:15;479.4;;;-146.1;100.0
45864;BME280;31579;52.354;16.974;2023-06-14T02:58:19;479.0;;;-146.1;100.0
45864;BME280;31579;52.354;16.974;2023-06-14T02:59:24;479.0;;;-146.1;100.0
45864;BME280;31579;52.354;16.974;2023-06-14T03:00:28;478.9;;;-146.1;100.0
45864;BME280;31579;52.354;16.974;2023-06-14T03:01:33;478.9;;;-146.1;100.0
45864;BME280;31579;52.354;16.974;2023-06-14T03:02:36;478.3;;;-146.1;100.0
45864;BME280;31579;52.354;16.974;2023-06-14T03:03:41;478.3;;;-146.1;100.0
45864;BME280;31579;52.354;16.974;2023-06-14T03:04:45;478.4;;;-146.1;100.0
45864;BME280;31579;52.354;16.974;2023-06-14T03:05:50;478.7;;;-146.1;100.0
45864;BME280;31579;52.354;16.974;2023-06-14T03:07:07;478.5;;;-146.1;100.0
45864;BME280;31579;52.354;16.974;2023-06-14T03:08:11;477.0;;;-146.1;100.0
45864;BME280;31579;52.354;16.974;2023-06-14T03:09:15;477.5;;;-146.1;100.0
45864;BME280;31579;52.354;16.974;2023-06-14T03:10:19;478.2;;;-146.1;100.0
45864;BME280;31579;52.354;16.974;2023-06-14T03:11:23;478.6;;;-146.1;100.0
45864;BME280;31579;52.354;16.974;2023-06-14T03:12:27;478.6;;;-146.1;100.0
45864;BME280;31579;52.354;16.974;2023-06-14T03:13:31;478.5;;;-146.1;100.0
45864;BME280;31579;52.354;16.974;2023-06-14T03:14:35;479.4;;;-146.1;100.0
45864;BME280;31579;52.354;16.974;2023-06-14T03:15:44;470.0;;;-146.1;100.0
45864;BME280;31579;52.354;16.974;2023-06-14T03:16:48;476.3;;;-146.1;100.0
45864;BME280;31579;52.354;16.974;2023-06-14T03:17:52;478.1;;;-146.1;100.0
45864;BME280;31579;52.354;16.974;2023-06-14T03:18:56;478.0;;;-146.1;100.0
45864;BME280;31579;52.354;16.974;2023-06-14T03:20:00;478.6;;;-146.1;100.0
45864;BME280;31579;52.354;16.974;2023-06-14T03:21:05;479.6;;;-146.1;100.0
45864;BME280;31579;52.354;16.974;2023-06-14T03:22:09;479.6;;;-146.1;100.0
45864;BME280;31579;52.354;16.974;2023-06-14T03:23:13;480.0;;;-146.1;100.0
45864;BME280;31579;52.354;16.974;2023-06-14T03:24:17;480.0;;;-146.1;100.0
45864;BME280;31579;52.354;16.974;2023-06-14T03:25:21;480.2;;;-146.1;100.0
45864;BME280;31579;52.354;16.974;2023-06-14T03:26:25;480.2;;;-146.1;100.0
45864;BME280;31579;52.354;16.974;2023-06-14T03:27:29;480.6;;;-146.1;100.0
45864;BME280;31579;52.354;16.974;2023-06-14T03:28:33;480.6;;;-146.1;100.0
45864;BME280;31579;52.354;16.974;2023-06-14T03:29:37;480.7;;;-146.1;100.0
45864;BME280;31579;52.354;16.974;2023-06-14T03:30:42;480.9;;;-146.1;100.0
45864;BME280;31579;52.354;16.974;2023-06-14T03:32:49;482.5;;;-146.1;100.0
45864;BME280;31579;52.354;16.974;2023-06-14T03:33:53;482.5;;;-146.1;100.0
45864;BME280;31579;52.354;16.974;2023-06-14T03:34:57;481.8;;;-146.1;100.0
45864;BME280;31579;52.354;16.974;2023-06-14T03:36:11;448.1;;;-146.1;100.0
45864;BME280;31579;52.354;16.974;2023-06-14T03:37:15;475.7;;;-146.1;100.0
45864;BME280;31579;52.354;16.974;2023-06-14T03:38:19;479.3;;;-146.1;100.0
45864;BME280;31579;52.354;16.974;2023-06-14T03:39:23;480.1;;;-146.1;100.0
45864;BME280;31579;52.354;16.974;2023-06-14T03:40:27;481.3;;;-146.1;100.0
45864;BME280;31579;52.354;16.974;2023-06-14T03:41:31;480.8;;;-146.1;100.0
45864;BME280;31579;52.354;16.974;2023-06-14T03:42:36;481.0;;;-146.1;100.0
45864;BME280;31579;52.354;16.974;2023-06-14T03:43:40;481.9;;;-146.1;100.0
45864;BME280;31579;52.354;16.974;2023-06-14T03:44:44;481.4;;;-146.1;100.0
45864;BME280;31579;52.354;16.974;2023-06-14T03:45:48;481.4;;;-146.1;100.0
45864;BME280;31579;52.354;16.974;2023-06-14T03:46:52;481.7;;;-146.1;100.0
45864;BME280;31579;52.354;16.974;2023-06-14T03:47:56;482.6;;;-146.1;100.0
45864;BME280;31579;52.354;16.974;2023-06-14T03:49:00;483.4;;;-146.1;100.0
45864;BME280;31579;52.354;16.974;2023-06-14T03:50:03;488.2;;;-146.1;100.0
45864;BME280;31579;52.354;16.974;2023-06-14T03:51:07;484.8;;;-146.1;100.0
45864;BME280;31579;52.354;16.974;2023-06-14T03:52:11;483.8;;;-146.1;100.0
45864;BME280;31579;52.354;16.974;2023-06-14T03:53:15;484.2;;;-146.1;100.0
45864;BME280;31579;52.354;16.974;2023-06-14T03:54:19;484.3;;;-146.1;100.0
45864;BME280;31579;52.354;16.974;2023-06-14T03:55:23;483.8;;;-146.1;100.0
45864;BME280;31579;52.354;16.974;2023-06-14T03:56:27;483.8;;;-146.1;100.0
45864;BME280;31579;52.354;16.974;2023-06-14T03:57:31;483.8;;;-146.1;100.0
45864;BME280;31579;52.354;16.974;2023-06-14T03:58:35;483.8;;;-146.1;100.0
45864;BME280;31579;52.354;16.974;2023-06-14T03:59:39;484.1;;;-146.1;100.0
45864;BME280;31579;52.354;16.974;2023-06-14T04:00:44;484.2;;;-146.1;100.0
45864;BME280;31579;52.354;16.974;2023-06-14T04:01:48;483.8;;;-146.1;100.0
45864;BME280;31579;52.354;16.974;2023-06-14T04:02:52;484.3;;;-146.1;100.0
45864;BME280;31579;52.354;16.974;2023-06-14T04:03:56;484.5;;;-146.1;100.0
45864;BME280;31579;52.354;16.974;2023-06-14T04:05:00;483.7;;;-146.1;100.0
45864;BME280;31579;52.354;16.974;2023-06-14T04:06:06;477.7;;;-146.1;100.0
45864;BME280;31579;52.354;16.974;2023-06-14T04:07:14;482.8;;;-146.1;100.0
45864;BME280;31579;52.354;16.974;2023-06-14T04:08:15;482.9;;;-146.1;100.0
45864;BME280;31579;52.354;16.974;2023-06-14T04:09:19;482.3;;;-146.1;100.0
45864;BME280;31579;52.354;16.974;2023-06-14T04:10:23;482.4;;;-146.1;100.0
45864;BME280;31579;52.354;16.974;2023-06-14T04:11:27;482.8;;;-146.1;100.0
45864;BME280;31579;52.354;16.974;2023-06-14T04:12:31;483.8;;;-146.1;100.0
45864;BME280;31579;52.354;16.974;2023-06-14T04:13:36;484.5;;;-146.1;100.0
45864;BME280;31579;52.354;16.974;2023-06-14T04:14:40;484.1;;;-146.1;100.0
45864;BME280;31579;52.354;16.974;2023-06-14T04:15:44;484.4;;;-146.1;100.0
45864;BME280;31579;52.354;16.974;2023-06-14T04:16:48;484.7;;;-146.1;100.0
45864;BME280;31579;52.354;16.974;2023-06-14T04:17:52;485.3;;;-146.1;100.0
45864;BME280;31579;52.354;16.974;2023-06-14T04:18:56;486.1;;;-146.1;100.0
45864;BME280;31579;52.354;16.974;2023-06-14T04:20:00;485.2;;;-146.1;100.0
45864;BME280;31579;52.354;16.974;2023-06-14T04:21:06;479.3;;;-146.1;100.0
45864;BME280;31579;52.354;16.974;2023-06-14T04:22:10;483.5;;;-146.1;100.0
45864;BME280;31579;52.354;16.974;2023-06-14T04:23:15;483.9;;;-146.1;100.0
45864;BME280;31579;52.354;16.974;2023-06-14T04:24:18;484.3;;;-146.1;100.0
45864;BME280;31579;52.354;16.974;2023-06-14T04:25:22;485.3;;;-146.1;100.0
45864;BME280;31579;52.354;16.974;2023-06-14T04:26:26;485.6;;;-146.1;100.0
45864;BME280;31579;52.354;16.974;2023-06-14T04:27:30;485.7;;;-146.1;100.0
45864;BME280;31579;52.354;16.974;2023-06-14T04:28:34;485.3;;;-146.1;100.0
45864;BME280;31579;52.354;16.974;2023-06-14T04:29:38;485.8;;;-146.1;100.0
45864;BME280;31579;52.354;16.974;2023-06-14T04:30:42;486.7;;;-146.1;100.0
45864;BME280;31579;52.354;16.974;2023-06-14T04:31:46;486.2;;;-146.1;100.0
45864;BME280;31579;52.354;16.974;2023-06-14T04:32:50;485.6;;;-146.1;100.0
45864;BME280;31579;52.354;16.974;2023-06-14T04:33:54;485.6;;;-146.1;100.0
45864;BME280;31579;52.354;16.974;2023-06-14T04:34:58;485.2;;;-146.1;100.0
45864;BME280;31579;52.354;16.974;2023-06-14T04:36:03;484.7;;;-146.1;100.0
45864;BME280;31579;52.354;16.974;2023-06-14T04:37:07;485.1;;;-146.1;100.0
45864;BME280;31579;52.354;16.974;2023-06-14T04:38:11;484.5;;;-146.1;100.0
45864;BME280;31579;52.354;16.974;2023-06-14T04:39:16;484.7;;;-146.1;100.0
45864;BME280;31579;52.354;16.974;2023-06-14T04:40:20;484.5;;;-146.1;100.0
45864;BME280;31579;52.354;16.974;2023-06-14T04:41:24;484.5;;;-146.1;100.0
45864;BME280;31579;52.354;16.974;2023-06-14T04:42:28;482.5;;;-146.1;100.0
45864;BME280;31579;52.354;16.974;2023-06-14T04:43:32;482.6;;;-146.1;100.0
45864;BME280;31579;52.354;16.974;2023-06-14T04:44:36;482.7;;;-146.1;100.0
45864;BME280;31579;52.354;16.974;2023-06-14T04:45:40;482.6;;;-146.1;100.0
45864;BME280;31579;52.354;16.974;2023-06-14T04:46:44;482.9;;;-146.1;100.0
45864;BME280;31579;52.354;16.974;2023-06-14T04:47:48;482.6;;;-146.1;100.0
45864;BME280;31579;52.354;16.974;2023-06-14T04:48:52;482.5;;;-146.1;100.0
45864;BME280;31579;52.354;16.974;2023-06-14T04:49:56;482.3;;;-146.1;100.0
45864;BME280;31579;52.354;16.974;2023-06-14T04:51:08;475.9;;;-146.1;100.0
45864;BME280;31579;52.354;16.974;2023-06-14T04:52:10;479.8;;;-146.1;100.0
45864;BME280;31579;52.354;16.974;2023-06-14T04:53:14;481.0;;;-146.1;100.0
45864;BME280;31579;52.354;16.974;2023-06-14T04:54:18;481.8;;;-146.1;100.0
45864;BME280;31579;52.354;16.974;2023-06-14T04:55:22;481.8;;;-146.1;100.0
45864;BME280;31579;52.354;16.974;2023-06-14T04:56:27;481.8;;;-146.1;100.0
45864;BME280;31579;52.354;16.974;2023-06-14T04:57:31;482.0;;;-146.1;100.0
45864;BME280;31579;52.354;16.974;2023-06-14T04:58:35;481.7;;;-146.1;100.0
45864;BME280;31579;52.354;16.974;2023-06-14T04:59:40;481.5;;;-146.1;100.0
45864;BME280;31579;52.354;16.974;2023-06-14T05:00:43;481.3;;;-146.1;100.0
45864;BME280;31579;52.354;16.974;2023-06-14T05:01:47;481.7;;;-146.1;100.0
45864;BME280;31579;52.354;16.974;2023-06-14T05:02:51;481.1;;;-146.1;100.0
45864;BME280;31579;52.354;16.974;2023-06-14T05:03:55;481.0;;;-146.1;100.0
45864;BME280;31579;52.354;16.974;2023-06-14T05:05:05;474.6;;;-146.1;100.0
45864;BME280;31579;52.354;16.974;2023-06-14T05:06:08;480.3;;;-146.1;100.0
45864;BME280;31579;52.354;16.974;2023-06-14T05:07:12;480.6;;;-146.1;100.0
45864;BME280;31579;52.354;16.974;2023-06-14T05:08:16;480.7;;;-146.1;100.0
45864;BME280;31579;52.354;16.974;2023-06-14T05:09:20;480.7;;;-146.1;100.0
45864;BME280;31579;52.354;16.974;2023-06-14T05:10:25;480.5;;;-146.1;100.0
45864;BME280;31579;52.354;16.974;2023-06-14T05:11:29;480.2;;;-146.1;100.0
45864;BME280;31579;52.354;16.974;2023-06-14T05:12:33;479.9;;;-146.1;100.0
45864;BME280;31579;52.354;16.974;2023-06-14T05:13:37;480.5;;;-146.1;100.0
45864;BME280;31579;52.354;16.974;2023-06-14T05:14:41;480.8;;;-146.1;100.0
45864;BME280;31579;52.354;16.974;2023-06-14T05:15:45;480.3;;;-146.1;100.0
45864;BME280;31579;52.354;16.974;2023-06-14T05:16:49;480.8;;;-146.1;100.0
45864;BME280;31579;52.354;16.974;2023-06-14T05:17:53;481.0;;;-146.1;100.0
45864;BME280;31579;52.354;16.974;2023-06-14T05:19:11;475.4;;;-146.1;100.0
45864;BME280;31579;52.354;16.974;2023-06-14T05:20:15;477.8;;;-146.1;100.0
45864;BME280;31579;52.354;16.974;2023-06-14T05:21:19;477.7;;;-146.1;100.0
45864;BME280;31579;52.354;16.974;2023-06-14T05:22:23;477.9;;;-146.1;100.0
45864;BME280;31579;52.354;16.974;2023-06-14T05:23:27;477.2;;;-146.1;100.0
45864;BME280;31579;52.354;16.974;2023-06-14T05:24:31;476.8;;;-146.1;100.0
45864;BME280;31579;52.354;16.974;2023-06-14T05:25:35;476.1;;;-146.1;100.0
45864;BME280;31579;52.354;16.974;2023-06-14T05:26:39;477.7;;;-146.1;100.0
45864;BME280;31579;52.354;16.974;2023-06-14T05:27:43;478.9;;;-146.1;100.0
45864;BME280;31579;52.354;16.974;2023-06-14T05:28:47;478.1;;;-146.1;100.0
45864;BME280;31579;52.354;16.974;2023-06-14T05:29:51;476.3;;;-146.1;100.0
45864;BME280;31579;52.354;16.974;2023-06-14T05:30:55;473.9;;;-146.1;100.0
45864;BME280;31579;52.354;16.974;2023-06-14T05:31:59;472.9;;;-146.1;100.0
45864;BME280;31579;52.354;16.974;2023-06-14T05:33:01;479.8;;;-146.1;100.0
45864;BME280;31579;52.354;16.974;2023-06-14T05:34:07;474.3;;;-146.1;100.0
45864;BME280;31579;52.354;16.974;2023-06-14T05:35:11;473.2;;;-146.1;100.0
45864;BME280;31579;52.354;16.974;2023-06-14T05:36:15;471.5;;;-146.1;100.0
45864;BME280;31579;52.354;16.974;2023-06-14T05:37:19;472.6;;;-146.1;100.0
45864;BME280;31579;52.354;16.974;2023-06-14T05:38:23;474.4;;;-146.1;100.0
45864;BME280;31579;52.354;16.974;2023-06-14T05:39:27;474.1;;;-146.1;100.0
45864;BME280;31579;52.354;16.974;2023-06-14T05:40:31;475.2;;;-146.1;100.0
45864;BME280;31579;52.354;16.974;2023-06-14T05:41:35;475.8;;;-146.1;100.0
45864;BME280;31579;52.354;16.974;2023-06-14T05:42:39;474.2;;;-146.1;100.0
45864;BME280;31579;52.354;16.974;2023-06-14T05:43:44;473.8;;;-146.1;100.0
45864;BME280;31579;52.354;16.974;2023-06-14T05:44:48;473.4;;;-146.1;100.0
45864;BME280;31579;52.354;16.974;2023-06-14T05:45:52;473.4;;;-146.1;100.0
45864;BME280;31579;52.354;16.974;2023-06-14T05:46:56;473.2;;;-146.1;100.0
45864;BME280;31579;52.354;16.974;2023-06-14T05:48:00;471.1;;;-146.1;100.0
45864;BME280;31579;52.354;16.974;2023-06-14T05:49:04;473.2;;;-146.1;100.0
45864;BME280;31579;52.354;16.974;2023-06-14T05:50:06;477.7;;;-146.1;100.0
45864;BME280;31579;52.354;16.974;2023-06-14T05:51:09;475.3;;;-146.1;100.0
45864;BME280;31579;52.354;16.974;2023-06-14T05:52:12;472.5;;;-146.1;100.0
45864;BME280;31579;52.354;16.974;2023-06-14T05:53:17;469.9;;;-146.1;100.0
45864;BME280;31579;52.354;16.974;2023-06-14T05:54:20;470.8;;;-146.1;100.0